createdAt,value
2019-01-21T00:00:54.390Z,-4.40
2019-01-21T00:03:36.519Z,-4.40
2019-01-21T00:06:06.056Z,-4.50
2019-01-21T00:08:35.582Z,-4.60
2019-01-21T00:11:05.056Z,-4.70
2019-01-21T00:13:34.619Z,-4.80
2019-01-21T00:16:04.228Z,-4.80
2019-01-21T00:18:33.713Z,-4.80
2019-01-21T00:21:03.303Z,-4.80
2019-01-21T00:23:32.710Z,-4.90
2019-01-21T00:26:02.159Z,-4.90
2019-01-21T00:28:31.979Z,-4.90
2019-01-21T00:31:01.423Z,-4.90
2019-01-21T00:33:30.911Z,-5.00
2019-01-21T00:36:00.282Z,-5.00
2019-01-21T00:38:29.686Z,-5.10
2019-01-21T00:40:59.056Z,-5.00
2019-01-21T00:43:28.459Z,-5.00
2019-01-21T00:45:57.828Z,-4.90
2019-01-21T00:48:27.235Z,-4.70
2019-01-21T00:50:56.726Z,-4.50
2019-01-21T00:53:26.214Z,-4.30
2019-01-21T00:55:55.646Z,-4.20
2019-01-21T00:58:25.195Z,-3.90
2019-01-21T01:00:55.322Z,-3.90
2019-01-21T01:03:24.871Z,-3.80
2019-01-21T01:05:54.296Z,-3.80
2019-01-21T01:08:23.849Z,-3.90
2019-01-21T01:10:54.190Z,-4.00
2019-01-21T01:13:23.653Z,-3.90
2019-01-21T01:15:53.177Z,-3.90
2019-01-21T01:18:22.643Z,-3.80
2019-01-21T01:20:52.322Z,-3.90
2019-01-21T01:23:21.774Z,-3.90
2019-01-21T01:25:52.775Z,-3.80
2019-01-21T01:28:22.347Z,-3.80
2019-01-21T01:30:51.787Z,-3.80
2019-01-21T01:33:21.209Z,-3.80
2019-01-21T01:35:50.722Z,-3.60
2019-01-21T01:38:20.316Z,-3.50
2019-01-21T01:40:49.891Z,-3.60
2019-01-21T01:43:19.447Z,-3.60
2019-01-21T01:45:49.159Z,-3.60
2019-01-21T01:48:18.774Z,-3.60
2019-01-21T01:50:51.291Z,-3.80
2019-01-21T01:53:21.104Z,-3.90
2019-01-21T01:55:50.898Z,-3.90
2019-01-21T01:58:20.459Z,-3.90
2019-01-21T02:00:52.884Z,-3.90
2019-01-21T02:03:22.357Z,-4.00
2019-01-21T02:05:51.915Z,-4.10
2019-01-21T02:08:21.575Z,-4.10
2019-01-21T02:10:51.656Z,-4.10
2019-01-21T02:13:21.138Z,-4.10
2019-01-21T02:15:50.548Z,-4.10
2019-01-21T02:18:20.103Z,-4.20
2019-01-21T02:20:54.219Z,-4.30
2019-01-21T02:23:27.043Z,-4.50
2019-01-21T02:25:58.196Z,-4.60
2019-01-21T02:28:39.595Z,-4.70
2019-01-21T02:31:47.015Z,-4.70
2019-01-21T02:34:25.867Z,-4.60
2019-01-21T02:37:13.147Z,-4.40
2019-01-21T02:39:57.645Z,-4.40
2019-01-21T02:42:39.318Z,-4.30
2019-01-21T02:45:17.762Z,-4.30
2019-01-21T02:48:02.501Z,-4.30
2019-01-21T02:50:40.981Z,-4.30
2019-01-21T02:53:44.039Z,-4.20
2019-01-21T02:56:19.182Z,-4.20
2019-01-21T02:58:57.423Z,-4.20
2019-01-21T03:01:46.688Z,-4.20
2019-01-21T03:04:35.654Z,-4.30
2019-01-21T03:07:23.181Z,-4.30
2019-01-21T03:10:13.325Z,-4.30
2019-01-21T03:12:52.033Z,-4.40
2019-01-21T03:15:30.589Z,-4.40
2019-01-21T03:18:28.929Z,-4.50
2019-01-21T03:21:07.804Z,-4.50
2019-01-21T03:24:13.650Z,-4.60
2019-01-21T03:27:02.075Z,-4.50
2019-01-21T03:30:03.335Z,-4.50
2019-01-21T03:32:43.528Z,-4.50
2019-01-21T03:35:27.938Z,-4.50
2019-01-21T03:38:18.309Z,-4.50
2019-01-21T03:41:05.957Z,-4.60
2019-01-21T03:44:01.177Z,-4.60
2019-01-21T03:46:50.289Z,-4.70
2019-01-21T03:49:35.645Z,-4.80
2019-01-21T03:52:43.175Z,-4.90
2019-01-21T03:55:15.004Z,-4.80
2019-01-21T03:58:02.694Z,-4.90
2019-01-21T04:00:40.831Z,-4.90
2019-01-21T04:03:24.739Z,-5.00
2019-01-21T04:06:00.461Z,-5.10
2019-01-21T04:08:42.461Z,-5.10
2019-01-21T04:11:19.519Z,-5.10
2019-01-21T04:14:10.210Z,-5.10
2019-01-21T04:16:51.654Z,-5.10
2019-01-21T04:19:39.162Z,-5.10
2019-01-21T04:22:26.788Z,-5.20
2019-01-21T04:24:59.396Z,-5.30
2019-01-21T04:27:37.636Z,-5.40
2019-01-21T04:30:19.022Z,-5.40
2019-01-21T04:32:54.547Z,-5.50
2019-01-21T04:35:47.693Z,-5.50
2019-01-21T04:38:50.805Z,-5.50
2019-01-21T04:41:44.710Z,-5.40
2019-01-21T04:44:23.197Z,-5.40
2019-01-21T04:47:20.377Z,-5.30
2019-01-21T04:49:58.722Z,-5.30
2019-01-21T04:52:46.286Z,-5.30
2019-01-21T04:55:30.460Z,-5.30
2019-01-21T04:58:22.626Z,-5.40
2019-01-21T05:01:04.486Z,-5.40
2019-01-21T05:03:42.936Z,-5.40
2019-01-21T05:06:21.312Z,-5.40
2019-01-21T05:09:08.336Z,-5.40
2019-01-21T05:11:52.754Z,-5.30
2019-01-21T05:14:31.406Z,-5.20
2019-01-21T05:17:06.604Z,-5.10
2019-01-21T05:19:57.521Z,-5.20
2019-01-21T05:22:32.909Z,-5.10
2019-01-21T05:25:08.515Z,-5.20
2019-01-21T05:27:50.034Z,-5.10
2019-01-21T05:30:31.226Z,-5.10
2019-01-21T05:33:23.125Z,-5.00
2019-01-21T05:36:13.374Z,-4.90
2019-01-21T05:38:48.535Z,-4.90
2019-01-21T05:41:29.672Z,-4.80
2019-01-21T05:44:18.396Z,-4.80
2019-01-21T05:46:59.760Z,-4.80
2019-01-21T05:50:07.382Z,-4.80
2019-01-21T05:52:56.476Z,-4.80
2019-01-21T05:55:37.820Z,-4.80
2019-01-21T05:58:43.543Z,-4.70
2019-01-21T06:01:35.300Z,-4.70
2019-01-21T06:04:16.823Z,-4.70
2019-01-21T06:06:55.467Z,-4.70
2019-01-21T06:09:33.414Z,-4.60
2019-01-21T06:12:18.019Z,-4.50
2019-01-21T06:15:10.486Z,-4.50
2019-01-21T06:17:52.081Z,-4.40
2019-01-21T06:20:32.435Z,-4.40
2019-01-21T06:23:36.882Z,-4.40
2019-01-21T06:26:42.903Z,-4.20
2019-01-21T06:29:27.224Z,-4.10
2019-01-21T06:32:10.134Z,-4.00
2019-01-21T06:34:48.258Z,-4.00
2019-01-21T06:37:32.786Z,-3.90
2019-01-21T06:40:29.415Z,-3.80
2019-01-21T06:43:10.576Z,-3.70
2019-01-21T06:46:01.216Z,-3.70
2019-01-21T06:48:51.255Z,-3.60
2019-01-21T06:51:39.005Z,-3.50
2019-01-21T06:54:38.785Z,-3.50
2019-01-21T06:57:34.217Z,-3.40
2019-01-21T07:00:36.858Z,-3.40
2019-01-21T07:03:35.350Z,-3.40
2019-01-21T07:06:15.721Z,-3.30
2019-01-21T07:08:51.339Z,-3.30
2019-01-21T07:11:39.260Z,-3.40
2019-01-21T07:14:11.737Z,-3.30
2019-01-21T07:17:07.322Z,-3.30
2019-01-21T07:19:51.162Z,-3.30
2019-01-21T07:22:23.757Z,-3.40
2019-01-21T07:25:20.354Z,-3.40
2019-01-21T07:28:09.685Z,-3.40
2019-01-21T07:30:42.165Z,-3.40
2019-01-21T07:33:31.482Z,-3.40
2019-01-21T07:36:22.239Z,-3.40
2019-01-21T07:39:00.706Z,-3.40
2019-01-21T07:41:45.138Z,-3.40
2019-01-21T07:44:23.163Z,-3.40
2019-01-21T07:47:18.316Z,-3.40
2019-01-21T07:49:54.176Z,-3.40
2019-01-21T07:52:43.363Z,-3.40
2019-01-21T07:55:31.016Z,-3.40
2019-01-21T07:58:22.922Z,-3.30
2019-01-21T08:01:01.004Z,-3.20
2019-01-21T08:03:42.609Z,-3.20
2019-01-21T08:06:24.326Z,-3.10
2019-01-21T08:08:59.551Z,-3.00
2019-01-21T08:11:37.957Z,-3.00
2019-01-21T08:14:13.055Z,-2.90
2019-01-21T08:16:48.451Z,-2.80
2019-01-21T08:19:28.076Z,-2.60
2019-01-21T08:22:28.417Z,-2.50
2019-01-21T08:25:07.123Z,-2.40
2019-01-21T08:27:56.371Z,-2.30
2019-01-21T08:30:46.890Z,-2.30
2019-01-21T08:33:43.622Z,-2.20
2019-01-21T08:36:19.059Z,-2.10
2019-01-21T08:38:57.427Z,-2.10
2019-01-21T08:41:32.495Z,-2.00
2019-01-21T08:44:14.033Z,-1.90
2019-01-21T08:46:59.547Z,-1.90
2019-01-21T08:49:32.087Z,-1.80
2019-01-21T08:52:07.489Z,-1.80
2019-01-21T08:54:43.002Z,-1.70
2019-01-21T08:57:22.718Z,-1.70
2019-01-21T09:00:14.561Z,-1.70
2019-01-21T09:03:07.394Z,-1.60
2019-01-21T09:05:51.887Z,-1.50
2019-01-21T09:08:30.229Z,-1.40
2019-01-21T09:11:17.463Z,-1.30
2019-01-21T09:14:01.727Z,-1.30
2019-01-21T09:16:46.898Z,-1.20
2019-01-21T09:19:25.556Z,-1.20
2019-01-21T09:22:03.579Z,-1.10
2019-01-21T09:24:58.726Z,-1.10
2019-01-21T09:27:40.095Z,-1.10
2019-01-21T09:30:30.810Z,-1.00
2019-01-21T09:33:03.308Z,-1.00
2019-01-21T09:35:43.169Z,-1.00
2019-01-21T09:38:21.619Z,-1.00
2019-01-21T09:40:56.754Z,-0.90
2019-01-21T09:43:29.248Z,-0.90
2019-01-21T09:46:03.193Z,-0.80
2019-01-21T09:48:31.595Z,-0.80
2019-01-21T09:51:04.040Z,-0.70
2019-01-21T09:53:35.190Z,-0.60
2019-01-21T09:56:05.273Z,-0.50
2019-01-21T09:58:35.102Z,-0.40
2019-01-21T10:01:04.821Z,-0.30
2019-01-21T10:03:34.771Z,-0.20
2019-01-21T10:06:06.666Z,-0.10
2019-01-21T10:08:39.213Z,-0.10
2019-01-21T10:11:46.454Z,0.10
2019-01-21T10:14:24.904Z,0.10
2019-01-21T10:17:00.151Z,0.20
2019-01-21T10:19:35.384Z,0.40
2019-01-21T10:22:20.150Z,0.50
2019-01-21T10:24:55.488Z,0.70
2019-01-21T10:27:30.706Z,0.70
2019-01-21T10:30:18.510Z,0.80
2019-01-21T10:33:27.496Z,0.70
2019-01-21T10:36:16.519Z,0.70
2019-01-21T10:39:04.634Z,0.80
2019-01-21T10:41:49.555Z,0.80
2019-01-21T10:44:24.888Z,0.80
2019-01-21T10:47:00.226Z,0.90
2019-01-21T10:49:35.703Z,0.90
2019-01-21T10:52:29.672Z,0.90
2019-01-21T10:55:05.247Z,0.90
2019-01-21T10:57:46.153Z,0.90
2019-01-21T11:00:42.758Z,1.00
2019-01-21T11:03:52.851Z,1.10
2019-01-21T11:06:49.732Z,1.10
2019-01-21T11:09:31.028Z,1.20
2019-01-21T11:12:18.417Z,1.20
2019-01-21T11:15:11.876Z,1.30
2019-01-21T11:17:50.484Z,1.40
2019-01-21T11:20:45.735Z,1.50
2019-01-21T11:23:36.331Z,1.70
2019-01-21T11:26:31.886Z,1.70
2019-01-21T11:29:25.672Z,1.70
2019-01-21T11:32:17.742Z,1.70
2019-01-21T11:35:12.844Z,1.70
2019-01-21T11:37:46.919Z,1.70
2019-01-21T11:40:37.488Z,1.90
2019-01-21T11:43:44.856Z,2.00
2019-01-21T11:46:38.440Z,2.10
2019-01-21T11:49:23.227Z,2.00
2019-01-21T11:52:17.743Z,2.30
2019-01-21T11:55:11.703Z,2.30
2019-01-21T11:57:53.071Z,2.40
2019-01-21T12:00:43.625Z,2.40
2019-01-21T12:03:23.635Z,2.50
2019-01-21T12:05:55.939Z,2.70
2019-01-21T12:08:56.734Z,2.70
2019-01-21T12:11:41.459Z,2.70
2019-01-21T12:14:25.815Z,2.80
2019-01-21T12:17:19.552Z,2.70
2019-01-21T12:20:06.414Z,2.80
2019-01-21T12:22:50.738Z,2.70
2019-01-21T12:25:29.162Z,2.80
2019-01-21T12:28:24.543Z,3.00
2019-01-21T12:31:02.715Z,3.30
2019-01-21T12:33:51.581Z,3.40
2019-01-21T12:36:24.134Z,3.60
2019-01-21T12:39:09.032Z,3.80
2019-01-21T12:41:47.396Z,3.60
2019-01-21T12:44:19.898Z,3.60
2019-01-21T12:46:58.264Z,3.70
2019-01-21T12:49:36.717Z,3.50
2019-01-21T12:52:15.081Z,3.60
2019-01-21T12:54:56.670Z,3.80
2019-01-21T12:58:02.928Z,3.80
2019-01-21T13:00:58.902Z,3.90
2019-01-21T13:03:47.817Z,3.70
2019-01-21T13:06:47.418Z,3.50
2019-01-21T13:09:47.284Z,3.60
2019-01-21T13:12:34.987Z,3.60
2019-01-21T13:15:35.040Z,3.60
2019-01-21T13:18:16.476Z,3.60
2019-01-21T13:21:06.865Z,3.60
2019-01-21T13:23:39.422Z,3.80
2019-01-21T13:26:32.823Z,3.80
2019-01-21T13:29:24.635Z,3.70
2019-01-21T13:31:59.799Z,3.60
2019-01-21T13:34:47.196Z,3.60
2019-01-21T13:37:39.506Z,3.70
2019-01-21T13:40:20.998Z,3.70
2019-01-21T13:43:01.342Z,3.90
2019-01-21T13:45:42.534Z,3.90
2019-01-21T13:48:15.269Z,3.90
2019-01-21T13:51:08.154Z,3.80
2019-01-21T13:53:46.805Z,4.00
2019-01-21T13:56:28.279Z,4.10
2019-01-21T13:59:23.121Z,4.10
2019-01-21T14:02:04.616Z,4.10
2019-01-21T14:04:40.208Z,3.90
2019-01-21T14:07:41.729Z,3.60
2019-01-21T14:10:38.625Z,3.20
2019-01-21T14:13:35.557Z,3.10
2019-01-21T14:16:23.314Z,2.90
2019-01-21T14:19:01.759Z,2.80
2019-01-21T14:21:52.451Z,2.70
2019-01-21T14:24:40.278Z,2.70
2019-01-21T14:27:30.715Z,2.60
2019-01-21T14:30:36.948Z,2.70
2019-01-21T14:33:24.501Z,2.60
2019-01-21T14:36:00.511Z,2.70
2019-01-21T14:38:35.900Z,2.70
2019-01-21T14:41:20.270Z,2.70
2019-01-21T14:43:52.773Z,2.60
2019-01-21T14:46:25.292Z,2.60
2019-01-21T14:49:04.636Z,2.50
2019-01-21T14:51:52.390Z,2.50
2019-01-21T14:54:30.623Z,2.50
2019-01-21T14:57:25.552Z,2.40
2019-01-21T15:00:16.272Z,2.30
2019-01-21T15:03:03.840Z,2.20
2019-01-21T15:05:57.652Z,2.20
2019-01-21T15:08:30.294Z,2.10
2019-01-21T15:11:08.895Z,2.00
2019-01-21T15:13:53.422Z,1.90
2019-01-21T15:16:47.082Z,1.90
2019-01-21T15:19:23.175Z,1.80
2019-01-21T15:21:55.690Z,1.80
2019-01-21T15:24:44.614Z,1.80
2019-01-21T15:27:32.057Z,1.80
2019-01-21T15:30:10.292Z,1.80
2019-01-21T15:32:59.309Z,1.80
2019-01-21T15:35:40.725Z,1.70
2019-01-21T15:38:25.159Z,1.70
2019-01-21T15:41:00.737Z,1.70
2019-01-21T15:43:36.441Z,1.60
2019-01-21T15:46:23.920Z,1.60
2019-01-21T15:49:05.342Z,1.60
2019-01-21T15:51:37.914Z,1.50
2019-01-21T15:54:18.708Z,1.40
2019-01-21T15:57:09.406Z,1.40
2019-01-21T16:00:00.277Z,1.30
2019-01-21T16:02:34.342Z,1.20
2019-01-21T16:05:12.862Z,1.10
2019-01-21T16:07:45.425Z,1.00
2019-01-21T16:10:29.819Z,0.80
2019-01-21T16:13:03.886Z,0.80
2019-01-21T16:15:52.463Z,0.80
2019-01-21T16:18:27.726Z,0.70
2019-01-21T16:21:03.603Z,0.80
2019-01-21T16:23:38.849Z,0.80
2019-01-21T16:26:08.343Z,0.70
2019-01-21T16:28:40.814Z,0.60
2019-01-21T16:31:16.188Z,0.50
2019-01-21T16:33:51.775Z,0.50
2019-01-21T16:36:43.935Z,0.40
2019-01-21T16:39:21.688Z,0.20
2019-01-21T16:42:15.034Z,0.20
2019-01-21T16:44:46.158Z,0.20
2019-01-21T16:47:15.735Z,0.20
2019-01-21T16:49:45.475Z,0.20
2019-01-21T16:52:15.025Z,0.10
2019-01-21T16:54:44.452Z,0.00
2019-01-21T16:57:13.857Z,0.00
2019-01-21T16:59:43.427Z,0.20
2019-01-21T17:02:14.666Z,0.10
2019-01-21T17:04:44.215Z,0.10
2019-01-21T17:07:13.853Z,0.20
2019-01-21T17:09:43.439Z,0.00
2019-01-21T17:12:12.911Z,-0.10
2019-01-21T17:14:42.426Z,-0.20
2019-01-21T17:19:41.522Z,-0.50
2019-01-21T17:22:10.955Z,-0.40
2019-01-21T17:24:40.403Z,-0.40
2019-01-21T17:27:09.972Z,-0.30
2019-01-21T17:29:39.471Z,-0.20
2019-01-21T17:32:09.130Z,0.00
2019-01-21T17:34:38.535Z,0.00
2019-01-21T17:37:07.917Z,0.00
2019-01-21T17:39:37.464Z,0.10
2019-01-21T17:42:07.127Z,0.10
2019-01-21T17:44:36.605Z,0.10
2019-01-21T17:47:06.137Z,0.00
2019-01-21T17:49:37.031Z,0.00
2019-01-21T17:52:06.506Z,0.00
2019-01-21T17:54:36.687Z,0.00
2019-01-21T17:57:06.378Z,0.00
2019-01-21T17:59:35.872Z,-0.10
2019-01-21T18:02:07.178Z,-0.20
2019-01-21T18:04:36.671Z,-0.30
2019-01-21T18:07:06.334Z,-0.30
2019-01-21T18:09:35.747Z,-0.30
2019-01-21T18:12:05.533Z,-0.40
2019-01-21T18:14:35.097Z,-0.30
2019-01-21T18:17:04.557Z,-0.30
2019-01-21T18:19:34.115Z,-0.40
2019-01-21T18:22:03.566Z,-0.40
2019-01-21T18:24:32.984Z,-0.50
2019-01-21T18:27:02.458Z,-0.50
2019-01-21T18:29:32.030Z,-0.50
2019-01-21T18:32:01.586Z,-0.60
2019-01-21T18:34:31.026Z,-0.60
2019-01-21T18:37:01.948Z,-0.50
2019-01-21T18:39:31.472Z,-0.50
2019-01-21T18:42:01.014Z,-0.40
2019-01-21T18:44:30.394Z,-0.40
2019-01-21T18:46:59.879Z,-0.40
2019-01-21T18:49:29.248Z,-0.50
2019-01-21T18:51:58.718Z,-0.50
2019-01-21T18:54:28.153Z,-0.50
2019-01-21T18:56:57.572Z,-0.40
2019-01-21T18:59:27.016Z,-0.40
2019-01-21T19:01:56.503Z,-0.40
2019-01-21T19:04:27.560Z,-0.40
2019-01-21T19:06:57.049Z,-0.40
2019-01-21T19:09:26.527Z,-0.30
2019-01-21T19:11:56.006Z,-0.30
2019-01-21T19:14:25.759Z,-0.40
2019-01-21T19:16:55.253Z,-0.40
2019-01-21T19:19:24.699Z,-0.30
2019-01-21T19:21:54.136Z,-0.20
2019-01-21T19:24:23.683Z,-0.30
2019-01-21T19:26:53.104Z,-0.30
2019-01-21T19:29:22.545Z,-0.30
2019-01-21T19:31:52.329Z,-0.30
2019-01-21T19:34:21.723Z,-0.30
2019-01-21T19:36:52.787Z,-0.30
2019-01-21T19:39:22.235Z,-0.40
2019-01-21T19:41:51.638Z,-0.30
2019-01-21T19:44:21.049Z,-0.30
2019-01-21T19:46:50.591Z,-0.20
2019-01-21T19:49:19.982Z,-0.20
2019-01-21T19:51:49.471Z,-0.20
2019-01-21T19:54:18.852Z,-0.20
2019-01-21T19:56:48.481Z,-0.10
2019-01-21T19:59:17.962Z,-0.10
2019-01-21T20:01:47.424Z,-0.10
2019-01-21T20:04:17.140Z,-0.10
2019-01-21T20:06:46.686Z,-0.20
2019-01-21T20:09:16.515Z,-0.20
2019-01-21T20:11:46.446Z,-0.30
2019-01-21T20:14:15.999Z,-0.30
2019-01-21T20:16:45.486Z,-0.20
2019-01-21T20:19:14.890Z,-0.20
2019-01-21T20:21:44.359Z,-0.10
2019-01-21T20:24:13.776Z,-0.10
2019-01-21T20:26:43.266Z,-0.10
2019-01-21T20:29:12.809Z,-0.10
2019-01-21T20:31:42.302Z,-0.10
2019-01-21T20:34:11.823Z,-0.10
2019-01-21T20:36:41.291Z,-0.10
2019-01-21T20:39:10.839Z,0.00
2019-01-21T20:41:40.314Z,0.00
2019-01-21T20:44:09.788Z,0.10
2019-01-21T20:46:39.200Z,0.20
2019-01-21T20:49:08.592Z,0.20
2019-01-21T20:51:38.151Z,0.20
2019-01-21T20:54:09.396Z,0.30
2019-01-21T20:56:38.870Z,0.40
2019-01-21T20:59:08.352Z,0.40
2019-01-21T21:01:37.910Z,0.50
2019-01-21T21:04:07.466Z,0.50
2019-01-21T21:06:36.884Z,0.40
2019-01-21T21:09:08.258Z,0.40
2019-01-21T21:11:37.678Z,0.40
2019-01-21T21:14:07.150Z,0.40
2019-01-21T21:16:36.838Z,0.40
2019-01-21T21:19:06.301Z,0.50
2019-01-21T21:21:35.771Z,0.50
2019-01-21T21:24:05.305Z,0.60
2019-01-21T21:26:36.478Z,0.60
2019-01-21T21:29:05.957Z,0.70
2019-01-21T21:31:35.526Z,0.70
2019-01-21T21:34:05.284Z,0.70
2019-01-21T21:36:34.744Z,0.70
2019-01-21T21:39:06.619Z,0.70
2019-01-21T21:41:36.151Z,0.70
2019-01-21T21:44:05.693Z,0.70
2019-01-21T21:46:35.144Z,0.80
2019-01-21T21:49:04.768Z,0.80
2019-01-21T21:51:34.229Z,0.80
2019-01-21T21:54:03.864Z,0.80
2019-01-21T21:56:33.339Z,0.90
2019-01-21T21:59:02.806Z,0.80
2019-01-21T22:01:32.479Z,0.80
2019-01-21T22:04:02.231Z,0.80
2019-01-21T22:06:31.714Z,0.80
2019-01-21T22:09:01.194Z,0.80
2019-01-21T22:11:30.679Z,0.80
2019-01-21T22:14:00.439Z,0.90
2019-01-21T22:16:30.098Z,0.80
2019-01-21T22:18:59.577Z,0.90
2019-01-21T22:21:29.139Z,0.90
2019-01-21T22:23:58.645Z,0.80
2019-01-21T22:26:28.552Z,0.90
2019-01-21T22:28:58.035Z,0.80
2019-01-21T22:31:27.523Z,0.80
2019-01-21T22:33:57.063Z,0.80
2019-01-21T22:36:28.142Z,0.70
2019-01-21T22:38:57.602Z,0.70
2019-01-21T22:41:27.072Z,0.80
2019-01-21T22:43:56.731Z,0.80
2019-01-21T22:46:26.261Z,0.80
2019-01-21T22:48:55.730Z,0.70
2019-01-21T22:51:25.221Z,0.70
2019-01-21T22:53:54.905Z,0.70
2019-01-21T22:56:24.639Z,0.70
2019-01-21T22:58:54.203Z,0.70
2019-01-21T23:01:25.510Z,0.70
2019-01-21T23:03:55.182Z,0.70
2019-01-21T23:06:24.795Z,0.70
2019-01-21T23:08:54.395Z,0.70
2019-01-21T23:11:23.981Z,0.70
2019-01-21T23:13:53.456Z,0.70
2019-01-21T23:16:22.996Z,0.70
2019-01-21T23:18:52.680Z,0.70
2019-01-21T23:21:22.232Z,0.70
2019-01-21T23:23:51.710Z,0.60
2019-01-21T23:26:21.174Z,0.70
2019-01-21T23:28:50.644Z,0.60
2019-01-21T23:31:20.144Z,0.50
2019-01-21T23:33:51.177Z,0.50
2019-01-21T23:36:20.726Z,0.40
2019-01-21T23:38:50.302Z,0.40
2019-01-21T23:41:22.933Z,0.40
2019-01-21T23:43:52.545Z,0.40
2019-01-21T23:46:22.191Z,0.40
2019-01-21T23:48:51.646Z,0.30
2019-01-21T23:51:21.192Z,0.30
2019-01-21T23:53:51.067Z,0.20
2019-01-21T23:56:20.718Z,0.20
2019-01-21T23:58:50.277Z,0.20
